sensor_id;sensor_type;location;lat;lon;timestamp;noise_LAeq;noise_LA_min;noise_LA_max;noise_LA01;noise_LA95
60503;Laerm;51448;51.660;5.824;2023-05-07T00:00:38;42.96;28.35;56.37;;
60503;Laerm;51448;51.660;5.824;2023-05-07T00:03:06;42.91;28.14;56.23;;
60503;Laerm;51448;51.660;5.824;2023-05-07T00:05:34;44.70;28.79;56.60;;
60503;Laerm;51448;51.660;5.824;2023-05-07T00:08:02;44.43;28.38;56.63;;
60503;Laerm;51448;51.660;5.824;2023-05-07T00:10:30;46.51;28.76;59.62;;
60503;Laerm;51448;51.660;5.824;2023-05-07T00:12:58;43.26;28.08;56.61;;
60503;Laerm;51448;51.660;5.824;2023-05-07T00:15:26;43.10;28.32;56.30;;
60503;Laerm;51448;51.660;5.824;2023-05-07T00:17:55;44.37;28.22;57.45;;
60503;Laerm;51448;51.660;5.824;2023-05-07T00:20:23;44.97;28.47;56.73;;
60503;Laerm;51448;51.660;5.824;2023-05-07T00:22:51;43.51;28.60;56.40;;
60503;Laerm;51448;51.660;5.824;2023-05-07T00:25:18;46.19;28.30;57.87;;
60503;Laerm;51448;51.660;5.824;2023-05-07T00:27:47;46.28;28.59;57.83;;
60503;Laerm;51448;51.660;5.824;2023-05-07T00:30:15;45.26;28.44;56.74;;
60503;Laerm;51448;51.660;5.824;2023-05-07T00:32:42;44.89;28.19;57.56;;
60503;Laerm;51448;51.660;5.824;2023-05-07T00:35:12;45.27;28.33;57.99;;
60503;Laerm;51448;51.660;5.824;2023-05-07T00:37:40;43.90;28.37;57.02;;
60503;Laerm;51448;51.660;5.824;2023-05-07T00:40:08;43.50;28.19;57.00;;
60503;Laerm;51448;51.660;5.824;2023-05-07T00:42:36;43.44;28.36;56.36;;
60503;Laerm;51448;51.660;5.824;2023-05-07T00:45:05;44.97;28.23;57.53;;
60503;Laerm;51448;51.660;5.824;2023-05-07T00:47:35;43.63;28.32;56.70;;
60503;Laerm;51448;51.660;5.824;2023-05-07T00:50:04;44.13;28.47;56.95;;
60503;Laerm;51448;51.660;5.824;2023-05-07T00:52:32;43.46;27.83;56.24;;
60503;Laerm;51448;51.660;5.824;2023-05-07T00:55:06;43.27;28.43;56.36;;
60503;Laerm;51448;51.660;5.824;2023-05-07T00:57:40;45.45;28.68;57.99;;
60503;Laerm;51448;51.660;5.824;2023-05-07T01:00:09;44.90;28.42;57.37;;
60503;Laerm;51448;51.660;5.824;2023-05-07T01:02:39;44.92;28.44;57.43;;
60503;Laerm;51448;51.660;5.824;2023-05-07T01:05:18;44.23;28.26;57.13;;
60503;Laerm;51448;51.660;5.824;2023-05-07T01:07:49;45.50;28.34;59.94;;
60503;Laerm;51448;51.660;5.824;2023-05-07T01:10:18;43.27;28.44;56.44;;
60503;Laerm;51448;51.660;5.824;2023-05-07T01:12:47;43.34;28.31;56.36;;
60503;Laerm;51448;51.660;5.824;2023-05-07T01:15:17;43.04;28.17;56.09;;
60503;Laerm;51448;51.660;5.824;2023-05-07T01:17:45;45.14;28.18;57.72;;
60503;Laerm;51448;51.660;5.824;2023-05-07T01:20:22;43.28;28.07;56.69;;
60503;Laerm;51448;51.660;5.824;2023-05-07T01:22:53;44.66;27.99;57.63;;
60503;Laerm;51448;51.660;5.824;2023-05-07T01:25:20;44.61;28.26;57.28;;
60503;Laerm;51448;51.660;5.824;2023-05-07T01:27:52;37.07;28.61;49.35;;
60503;Laerm;51448;51.660;5.824;2023-05-07T01:30:23;43.84;28.35;56.69;;
60503;Laerm;51448;51.660;5.824;2023-05-07T01:33:00;44.59;28.69;56.80;;
60503;Laerm;51448;51.660;5.824;2023-05-07T01:35:37;44.37;31.43;56.50;;
60503;Laerm;51448;51.660;5.824;2023-05-07T01:38:07;46.62;28.94;57.30;;
60503;Laerm;51448;51.660;5.824;2023-05-07T01:40:36;44.03;28.58;56.51;;
60503;Laerm;51448;51.660;5.824;2023-05-07T01:43:04;44.76;28.27;57.56;;
60503;Laerm;51448;51.660;5.824;2023-05-07T01:45:35;43.97;28.12;56.95;;
60503;Laerm;51448;51.660;5.824;2023-05-07T01:48:03;46.06;28.27;58.03;;
60503;Laerm;51448;51.660;5.824;2023-05-07T01:50:32;44.10;27.98;57.04;;
60503;Laerm;51448;51.660;5.824;2023-05-07T01:53:01;45.12;27.64;57.84;;
60503;Laerm;51448;51.660;5.824;2023-05-07T01:55:30;44.84;27.76;57.04;;
60503;Laerm;51448;51.660;5.824;2023-05-07T01:57:58;44.58;28.15;57.00;;
60503;Laerm;51448;51.660;5.824;2023-05-07T02:00:26;45.29;27.76;57.44;;
60503;Laerm;51448;51.660;5.824;2023-05-07T02:02:54;43.94;28.11;56.75;;
60503;Laerm;51448;51.660;5.824;2023-05-07T02:05:37;43.41;27.99;56.99;;
60503;Laerm;51448;51.660;5.824;2023-05-07T02:08:12;45.39;28.75;60.21;;
60503;Laerm;51448;51.660;5.824;2023-05-07T02:10:40;43.84;28.13;56.41;;
60503;Laerm;51448;51.660;5.824;2023-05-07T02:13:07;43.65;27.83;56.75;;
60503;Laerm;51448;51.660;5.824;2023-05-07T02:15:35;43.59;28.10;56.74;;
60503;Laerm;51448;51.660;5.824;2023-05-07T02:18:07;43.47;28.04;57.06;;
60503;Laerm;51448;51.660;5.824;2023-05-07T02:20:36;44.02;27.81;57.03;;
60503;Laerm;51448;51.660;5.824;2023-05-07T02:23:04;44.75;28.00;57.05;;
60503;Laerm;51448;51.660;5.824;2023-05-07T02:25:32;44.61;27.99;57.10;;
60503;Laerm;51448;51.660;5.824;2023-05-07T02:27:59;44.86;27.70;57.31;;
60503;Laerm;51448;51.660;5.824;2023-05-07T02:30:42;43.06;27.78;56.61;;
60503;Laerm;51448;51.660;5.824;2023-05-07T02:33:09;44.34;27.81;57.79;;
60503;Laerm;51448;51.660;5.824;2023-05-07T02:35:40;44.31;27.86;57.03;;
60503;Laerm;51448;51.660;5.824;2023-05-07T02:38:10;45.35;28.03;57.82;;
60503;Laerm;51448;51.660;5.824;2023-05-07T02:40:39;43.85;28.09;57.15;;
60503;Laerm;51448;51.660;5.824;2023-05-07T02:43:07;45.45;28.03;57.99;;
60503;Laerm;51448;51.660;5.824;2023-05-07T02:45:35;43.91;27.89;56.94;;
60503;Laerm;51448;51.660;5.824;2023-05-07T02:48:06;42.49;27.90;56.49;;
60503;Laerm;51448;51.660;5.824;2023-05-07T02:50:34;43.91;28.15;56.77;;
60503;Laerm;51448;51.660;5.824;2023-05-07T02:53:02;45.18;27.93;57.80;;
60503;Laerm;51448;51.660;5.824;2023-05-07T02:55:30;44.40;28.16;56.51;;
60503;Laerm;51448;51.660;5.824;2023-05-07T02:57:57;47.00;28.18;68.25;;
60503;Laerm;51448;51.660;5.824;2023-05-07T03:00:26;44.03;28.43;56.71;;
60503;Laerm;51448;51.660;5.824;2023-05-07T03:03:23;44.18;28.41;56.68;;
60503;Laerm;51448;51.660;5.824;2023-05-07T03:05:51;45.90;28.94;57.71;;
60503;Laerm;51448;51.660;5.824;2023-05-07T03:08:18;45.59;29.33;56.76;;
60503;Laerm;51448;51.660;5.824;2023-05-07T03:10:47;46.23;28.91;57.40;;
60503;Laerm;51448;51.660;5.824;2023-05-07T03:13:14;46.44;30.39;58.55;;
60503;Laerm;51448;51.660;5.824;2023-05-07T03:15:42;46.81;30.36;58.55;;
60503;Laerm;51448;51.660;5.824;2023-05-07T03:18:10;47.31;30.80;58.74;;
60503;Laerm;51448;51.660;5.824;2023-05-07T03:20:38;47.23;31.43;65.52;;
60503;Laerm;51448;51.660;5.824;2023-05-07T03:23:06;55.01;32.00;68.85;;
60503;Laerm;51448;51.660;5.824;2023-05-07T03:25:34;55.54;30.71;73.85;;
60503;Laerm;51448;51.660;5.824;2023-05-07T03:28:01;52.16;32.10;71.21;;
60503;Laerm;51448;51.660;5.824;2023-05-07T03:30:38;47.04;32.05;62.10;;
60503;Laerm;51448;51.660;5.824;2023-05-07T03:33:06;52.01;32.28;66.44;;
60503;Laerm;51448;51.660;5.824;2023-05-07T03:35:34;49.10;34.75;61.04;;
60503;Laerm;51448;51.660;5.824;2023-05-07T03:38:02;49.68;33.83;64.43;;
60503;Laerm;51448;51.660;5.824;2023-05-07T03:40:33;49.92;33.58;60.00;;
60503;Laerm;51448;51.660;5.824;2023-05-07T03:43:01;49.83;33.01;62.19;;
60503;Laerm;51448;51.660;5.824;2023-05-07T03:45:31;47.60;33.25;58.29;;
60503;Laerm;51448;51.660;5.824;2023-05-07T03:48:09;53.12;32.39;67.57;;
60503;Laerm;51448;51.660;5.824;2023-05-07T03:50:37;58.05;35.55;68.99;;
60503;Laerm;51448;51.660;5.824;2023-05-07T03:53:05;56.43;34.07;71.42;;
60503;Laerm;51448;51.660;5.824;2023-05-07T03:55:37;55.22;33.20;73.09;;
60503;Laerm;51448;51.660;5.824;2023-05-07T03:58:05;53.37;32.98;69.02;;
60503;Laerm;51448;51.660;5.824;2023-05-07T04:00:33;53.41;33.90;66.37;;
60503;Laerm;51448;51.660;5.824;2023-05-07T04:03:14;52.21;33.57;69.55;;
60503;Laerm;51448;51.660;5.824;2023-05-07T04:05:42;63.57;31.29;87.75;;
60503;Laerm;51448;51.660;5.824;2023-05-07T04:08:10;46.85;31.36;58.70;;
60503;Laerm;51448;51.660;5.824;2023-05-07T04:10:45;53.74;31.58;73.00;;
60503;Laerm;51448;51.660;5.824;2023-05-07T04:13:13;48.68;30.68;65.78;;
60503;Laerm;51448;51.660;5.824;2023-05-07T04:15:42;47.40;31.73;63.46;;
60503;Laerm;51448;51.660;5.824;2023-05-07T04:18:12;47.71;31.00;61.92;;
60503;Laerm;51448;51.660;5.824;2023-05-07T04:20:44;46.42;32.13;57.32;;
60503;Laerm;51448;51.660;5.824;2023-05-07T04:23:14;47.62;31.21;59.74;;
60503;Laerm;51448;51.660;5.824;2023-05-07T04:25:42;47.54;30.21;61.68;;
60503;Laerm;51448;51.660;5.824;2023-05-07T04:28:23;48.27;32.71;59.99;;
60503;Laerm;51448;51.660;5.824;2023-05-07T04:30:51;50.75;38.10;63.81;;
60503;Laerm;51448;51.660;5.824;2023-05-07T04:33:20;50.12;35.68;64.46;;
60503;Laerm;51448;51.660;5.824;2023-05-07T04:35:50;49.01;34.41;61.86;;
60503;Laerm;51448;51.660;5.824;2023-05-07T04:38:18;50.58;31.82;62.73;;
60503;Laerm;51448;51.660;5.824;2023-05-07T04:40:49;48.54;31.70;61.16;;
60503;Laerm;51448;51.660;5.824;2023-05-07T04:43:21;48.56;31.89;64.42;;
60503;Laerm;51448;51.660;5.824;2023-05-07T04:45:51;54.74;31.04;79.07;;
60503;Laerm;51448;51.660;5.824;2023-05-07T04:48:21;52.19;31.63;73.04;;
60503;Laerm;51448;51.660;5.824;2023-05-07T04:50:51;52.13;30.75;72.05;;
60503;Laerm;51448;51.660;5.824;2023-05-07T04:53:20;52.04;30.99;73.92;;
60503;Laerm;51448;51.660;5.824;2023-05-07T04:55:55;53.33;30.07;68.79;;
60503;Laerm;51448;51.660;5.824;2023-05-07T04:58:25;53.98;30.89;76.58;;
60503;Laerm;51448;51.660;5.824;2023-05-07T05:00:56;52.91;30.18;65.22;;
60503;Laerm;51448;51.660;5.824;2023-05-07T05:03:23;60.98;30.72;87.62;;
60503;Laerm;51448;51.660;5.824;2023-05-07T05:05:52;52.40;31.94;76.26;;
60503;Laerm;51448;51.660;5.824;2023-05-07T05:08:21;49.81;31.80;62.73;;
60503;Laerm;51448;51.660;5.824;2023-05-07T05:10:49;57.22;30.96;78.34;;
60503;Laerm;51448;51.660;5.824;2023-05-07T05:13:17;55.39;32.62;80.35;;
60503;Laerm;51448;51.660;5.824;2023-05-07T05:15:46;47.24;31.09;60.21;;
60503;Laerm;51448;51.660;5.824;2023-05-07T05:18:14;47.18;31.33;68.00;;
60503;Laerm;51448;51.660;5.824;2023-05-07T05:20:41;50.17;32.25;71.81;;
60503;Laerm;51448;51.660;5.824;2023-05-07T05:23:09;51.58;32.84;77.90;;
60503;Laerm;51448;51.660;5.824;2023-05-07T05:25:37;49.71;31.82;65.02;;
60503;Laerm;51448;51.660;5.824;2023-05-07T05:28:08;48.28;31.21;70.84;;
60503;Laerm;51448;51.660;5.824;2023-05-07T05:30:36;49.95;31.60;65.27;;
60503;Laerm;51448;51.660;5.824;2023-05-07T05:33:04;49.03;31.03;69.21;;
60503;Laerm;51448;51.660;5.824;2023-05-07T05:35:32;48.55;31.36;66.92;;
60503;Laerm;51448;51.660;5.824;2023-05-07T05:38:03;54.18;30.49;79.28;;
60503;Laerm;51448;51.660;5.824;2023-05-07T05:40:31;49.69;30.79;65.83;;
60503;Laerm;51448;51.660;5.824;2023-05-07T05:43:00;62.93;32.36;80.84;;
60503;Laerm;51448;51.660;5.824;2023-05-07T05:45:28;59.30;30.29;80.42;;
60503;Laerm;51448;51.660;5.824;2023-05-07T05:47:56;47.80;30.46;62.94;;
60503;Laerm;51448;51.660;5.824;2023-05-07T05:50:25;52.47;32.07;71.21;;
60503;Laerm;51448;51.660;5.824;2023-05-07T05:52:54;52.71;31.10;72.07;;
60503;Laerm;51448;51.660;5.824;2023-05-07T05:55:22;50.81;30.55;74.04;;
60503;Laerm;51448;51.660;5.824;2023-05-07T05:57:50;51.03;30.20;70.61;;
60503;Laerm;51448;51.660;5.824;2023-05-07T06:00:19;48.78;30.81;70.45;;
60503;Laerm;51448;51.660;5.824;2023-05-07T06:02:57;51.56;31.24;73.68;;
60503;Laerm;51448;51.660;5.824;2023-05-07T06:05:26;49.15;30.61;70.34;;
60503;Laerm;51448;51.660;5.824;2023-05-07T06:07:56;47.22;30.66;69.63;;
60503;Laerm;51448;51.660;5.824;2023-05-07T06:10:24;46.92;29.63;64.25;;
60503;Laerm;51448;51.660;5.824;2023-05-07T06:12:53;50.84;31.68;64.70;;
60503;Laerm;51448;51.660;5.824;2023-05-07T06:15:21;48.33;29.48;62.69;;
60503;Laerm;51448;51.660;5.824;2023-05-07T06:17:48;50.50;30.12;65.85;;
60503;Laerm;51448;51.660;5.824;2023-05-07T06:20:17;48.40;29.75;62.69;;
60503;Laerm;51448;51.660;5.824;2023-05-07T06:22:45;54.32;30.24;80.28;;
60503;Laerm;51448;51.660;5.824;2023-05-07T06:25:15;49.92;31.14;67.38;;
60503;Laerm;51448;51.660;5.824;2023-05-07T06:27:43;49.17;32.45;69.61;;
60503;Laerm;51448;51.660;5.824;2023-05-07T06:30:11;46.45;30.01;70.39;;
60503;Laerm;51448;51.660;5.824;2023-05-07T06:32:40;57.46;31.03;78.88;;
60503;Laerm;51448;51.660;5.824;2023-05-07T06:35:09;48.09;31.47;62.09;;
60503;Laerm;51448;51.660;5.824;2023-05-07T06:37:38;47.49;29.61;63.54;;
60503;Laerm;51448;51.660;5.824;2023-05-07T06:40:09;60.73;30.48;86.39;;
60503;Laerm;51448;51.660;5.824;2023-05-07T06:42:39;50.89;30.85;71.66;;
60503;Laerm;51448;51.660;5.824;2023-05-07T06:45:36;72.87;31.38;95.10;;
60503;Laerm;51448;51.660;5.824;2023-05-07T06:48:05;45.94;33.30;59.95;;
60503;Laerm;51448;51.660;5.824;2023-05-07T06:50:42;48.59;32.34;69.77;;
60503;Laerm;51448;51.660;5.824;2023-05-07T06:53:11;46.70;32.99;58.05;;
60503;Laerm;51448;51.660;5.824;2023-05-07T06:55:39;56.48;30.85;83.61;;
60503;Laerm;51448;51.660;5.824;2023-05-07T06:58:09;55.77;32.32;78.01;;
60503;Laerm;51448;51.660;5.824;2023-05-07T07:00:37;47.08;30.87;63.22;;
60503;Laerm;51448;51.660;5.824;2023-05-07T07:03:05;48.72;31.45;63.45;;
60503;Laerm;51448;51.660;5.824;2023-05-07T07:05:33;53.36;30.49;80.11;;
60503;Laerm;51448;51.660;5.824;2023-05-07T07:08:03;49.39;30.52;68.45;;
60503;Laerm;51448;51.660;5.824;2023-05-07T07:10:31;49.67;30.52;61.77;;
60503;Laerm;51448;51.660;5.824;2023-05-07T07:13:00;48.72;31.14;69.54;;
60503;Laerm;51448;51.660;5.824;2023-05-07T07:15:28;49.61;30.33;67.45;;
60503;Laerm;51448;51.660;5.824;2023-05-07T07:17:56;52.05;31.28;66.33;;
60503;Laerm;51448;51.660;5.824;2023-05-07T07:20:25;49.04;30.46;66.49;;
60503;Laerm;51448;51.660;5.824;2023-05-07T07:22:53;47.94;31.75;64.38;;
60503;Laerm;51448;51.660;5.824;2023-05-07T07:25:21;57.96;31.12;82.77;;
60503;Laerm;51448;51.660;5.824;2023-05-07T07:27:50;61.53;31.75;75.40;;
60503;Laerm;51448;51.660;5.824;2023-05-07T07:30:18;57.31;31.10;78.85;;
60503;Laerm;51448;51.660;5.824;2023-05-07T07:32:49;48.70;32.76;61.13;;
60503;Laerm;51448;51.660;5.824;2023-05-07T07:35:17;49.73;31.79;76.10;;
60503;Laerm;51448;51.660;5.824;2023-05-07T07:37:45;54.09;31.46;76.75;;
60503;Laerm;51448;51.660;5.824;2023-05-07T07:40:14;53.33;32.08;75.49;;
60503;Laerm;51448;51.660;5.824;2023-05-07T07:42:43;48.68;30.86;66.43;;
60503;Laerm;51448;51.660;5.824;2023-05-07T07:45:11;50.71;31.58;68.75;;
60503;Laerm;51448;51.660;5.824;2023-05-07T07:47:44;46.28;30.06;67.62;;
60503;Laerm;51448;51.660;5.824;2023-05-07T07:50:12;45.72;30.98;63.20;;
60503;Laerm;51448;51.660;5.824;2023-05-07T07:52:52;51.08;32.41;71.30;;
60503;Laerm;51448;51.660;5.824;2023-05-07T07:55:20;48.16;31.79;62.81;;
60503;Laerm;51448;51.660;5.824;2023-05-07T07:57:52;50.24;31.64;77.95;;
60503;Laerm;51448;51.660;5.824;2023-05-07T08:00:20;48.53;33.70;65.93;;
60503;Laerm;51448;51.660;5.824;2023-05-07T08:02:52;50.81;30.64;75.52;;
60503;Laerm;51448;51.660;5.824;2023-05-07T08:05:26;47.08;30.83;62.35;;
60503;Laerm;51448;51.660;5.824;2023-05-07T08:07:54;52.77;32.93;71.39;;
60503;Laerm;51448;51.660;5.824;2023-05-07T08:10:27;54.45;31.58;71.46;;
60503;Laerm;51448;51.660;5.824;2023-05-07T08:13:01;54.70;31.25;79.03;;
60503;Laerm;51448;51.660;5.824;2023-05-07T08:15:31;47.80;30.71;72.56;;
60503;Laerm;51448;51.660;5.824;2023-05-07T08:18:01;48.45;29.77;74.44;;
60503;Laerm;51448;51.660;5.824;2023-05-07T08:20:30;49.32;30.93;64.00;;
60503;Laerm;51448;51.660;5.824;2023-05-07T08:22:58;49.42;31.61;71.43;;
60503;Laerm;51448;51.660;5.824;2023-05-07T08:25:28;54.01;29.88;73.80;;
60503;Laerm;51448;51.660;5.824;2023-05-07T08:27:56;55.11;32.39;69.08;;
60503;Laerm;51448;51.660;5.824;2023-05-07T08:30:24;47.79;30.32;60.67;;
60503;Laerm;51448;51.660;5.824;2023-05-07T08:32:55;56.99;31.86;70.92;;
60503;Laerm;51448;51.660;5.824;2023-05-07T08:35:23;54.05;31.26;72.61;;
60503;Laerm;51448;51.660;5.824;2023-05-07T08:37:51;48.69;33.15;69.05;;
60503;Laerm;51448;51.660;5.824;2023-05-07T08:40:25;48.66;30.72;64.37;;
60503;Laerm;51448;51.660;5.824;2023-05-07T08:42:56;49.68;30.34;70.83;;
60503;Laerm;51448;51.660;5.824;2023-05-07T08:45:27;47.11;29.25;70.66;;
60503;Laerm;51448;51.660;5.824;2023-05-07T08:48:01;49.06;31.27;64.88;;
60503;Laerm;51448;51.660;5.824;2023-05-07T08:50:36;48.26;29.58;68.73;;
60503;Laerm;51448;51.660;5.824;2023-05-07T08:53:05;50.40;31.22;71.21;;
60503;Laerm;51448;51.660;5.824;2023-05-07T08:55:40;50.95;31.11;73.81;;
60503;Laerm;51448;51.660;5.824;2023-05-07T08:58:08;54.05;30.64;78.81;;
60503;Laerm;51448;51.660;5.824;2023-05-07T09:00:40;80.08;30.07;106.51;;
60503;Laerm;51448;51.660;5.824;2023-05-07T09:03:12;50.56;31.52;64.49;;
60503;Laerm;51448;51.660;5.824;2023-05-07T09:05:45;48.45;30.62;63.90;;
60503;Laerm;51448;51.660;5.824;2023-05-07T09:08:15;56.58;32.50;71.41;;
60503;Laerm;51448;51.660;5.824;2023-05-07T09:10:48;56.89;31.64;81.58;;
60503;Laerm;51448;51.660;5.824;2023-05-07T09:13:17;50.74;32.05;69.62;;
60503;Laerm;51448;51.660;5.824;2023-05-07T09:15:52;51.04;33.14;78.04;;
60503;Laerm;51448;51.660;5.824;2023-05-07T09:18:29;50.07;32.35;71.04;;
60503;Laerm;51448;51.660;5.824;2023-05-07T09:20:57;58.72;31.29;77.86;;
60503;Laerm;51448;51.660;5.824;2023-05-07T09:23:31;51.12;31.64;76.04;;
60503;Laerm;51448;51.660;5.824;2023-05-07T09:26:04;49.20;31.27;69.40;;
60503;Laerm;51448;51.660;5.824;2023-05-07T09:28:52;47.95;37.32;73.77;;
60503;Laerm;51448;51.660;5.824;2023-05-07T09:31:20;47.58;32.27;68.65;;
60503;Laerm;51448;51.660;5.824;2023-05-07T09:33:52;52.16;32.89;73.78;;
60503;Laerm;51448;51.660;5.824;2023-05-07T09:36:21;48.11;34.58;66.83;;
60503;Laerm;51448;51.660;5.824;2023-05-07T09:38:49;46.98;33.63;64.21;;
60503;Laerm;51448;51.660;5.824;2023-05-07T09:41:19;51.78;32.09;70.47;;
60503;Laerm;51448;51.660;5.824;2023-05-07T09:43:57;47.38;30.35;68.42;;
60503;Laerm;51448;51.660;5.824;2023-05-07T09:46:33;54.08;33.54;75.26;;
60503;Laerm;51448;51.660;5.824;2023-05-07T09:49:13;55.08;32.16;72.98;;
60503;Laerm;51448;51.660;5.824;2023-05-07T09:51:50;50.05;33.49;68.65;;
60503;Laerm;51448;51.660;5.824;2023-05-07T09:54:22;53.88;33.12;71.89;;
60503;Laerm;51448;51.660;5.824;2023-05-07T09:56:53;54.92;30.41;65.71;;
60503;Laerm;51448;51.660;5.824;2023-05-07T09:59:26;49.94;31.22;65.34;;
60503;Laerm;51448;51.660;5.824;2023-05-07T10:02:01;51.93;30.43;65.93;;
60503;Laerm;51448;51.660;5.824;2023-05-07T10:04:35;47.28;30.76;62.86;;
60503;Laerm;51448;51.660;5.824;2023-05-07T10:07:05;61.39;31.27;84.64;;
60503;Laerm;51448;51.660;5.824;2023-05-07T10:09:35;54.44;33.15;76.32;;
60503;Laerm;51448;51.660;5.824;2023-05-07T10:12:09;51.51;31.84;73.91;;
60503;Laerm;51448;51.660;5.824;2023-05-07T10:14:38;48.36;30.95;66.80;;
60503;Laerm;51448;51.660;5.824;2023-05-07T10:17:11;49.48;32.26;66.43;;
60503;Laerm;51448;51.660;5.824;2023-05-07T10:19:44;47.28;30.81;63.54;;
60503;Laerm;51448;51.660;5.824;2023-05-07T10:22:13;52.05;30.86;76.14;;
60503;Laerm;51448;51.660;5.824;2023-05-07T10:24:50;57.41;33.84;79.43;;
60503;Laerm;51448;51.660;5.824;2023-05-07T10:27:22;58.89;32.71;82.64;;
60503;Laerm;51448;51.660;5.824;2023-05-07T10:32:47;45.85;33.18;63.83;;
60503;Laerm;51448;51.660;5.824;2023-05-07T10:35:27;49.94;31.10;75.87;;
60503;Laerm;51448;51.660;5.824;2023-05-07T10:37:59;47.83;35.14;68.46;;
60503;Laerm;51448;51.660;5.824;2023-05-07T10:40:31;49.87;33.30;68.74;;
60503;Laerm;51448;51.660;5.824;2023-05-07T10:43:04;47.52;31.44;64.02;;
60503;Laerm;51448;51.660;5.824;2023-05-07T10:46:19;48.96;32.35;63.21;;
60503;Laerm;51448;51.660;5.824;2023-05-07T10:52:24;47.41;30.14;63.26;;
60503;Laerm;51448;51.660;5.824;2023-05-07T10:55:20;46.92;30.42;62.75;;
60503;Laerm;51448;51.660;5.824;2023-05-07T11:01:08;51.38;31.93;67.47;;
60503;Laerm;51448;51.660;5.824;2023-05-07T11:04:13;51.36;32.42;70.34;;
60503;Laerm;51448;51.660;5.824;2023-05-07T11:15:13;46.43;31.12;64.03;;
60503;Laerm;51448;51.660;5.824;2023-05-07T11:17:54;52.18;31.31;76.50;;
60503;Laerm;51448;51.660;5.824;2023-05-07T11:20:46;51.59;30.29;76.76;;
60503;Laerm;51448;51.660;5.824;2023-05-07T11:26:50;48.04;32.23;67.20;;
60503;Laerm;51448;51.660;5.824;2023-05-07T11:29:21;55.23;33.34;72.22;;
60503;Laerm;51448;51.660;5.824;2023-05-07T11:31:55;49.43;32.05;68.97;;
60503;Laerm;51448;51.660;5.824;2023-05-07T11:34:27;48.56;29.83;66.62;;
60503;Laerm;51448;51.660;5.824;2023-05-07T11:36:59;48.34;30.75;66.38;;
60503;Laerm;51448;51.660;5.824;2023-05-07T11:39:49;55.88;33.37;76.31;;
60503;Laerm;51448;51.660;5.824;2023-05-07T11:42:31;49.75;31.61;64.94;;
60503;Laerm;51448;51.660;5.824;2023-05-07T11:45:00;48.49;31.24;64.79;;
60503;Laerm;51448;51.660;5.824;2023-05-07T11:47:33;55.02;31.26;72.06;;
60503;Laerm;51448;51.660;5.824;2023-05-07T11:50:08;46.32;30.90;63.01;;
60503;Laerm;51448;51.660;5.824;2023-05-07T11:52:38;47.24;31.32;69.40;;
60503;Laerm;51448;51.660;5.824;2023-05-07T11:55:07;56.78;32.84;73.96;;
60503;Laerm;51448;51.660;5.824;2023-05-07T11:57:35;44.17;31.23;62.35;;
60503;Laerm;51448;51.660;5.824;2023-05-07T12:00:03;48.93;31.07;67.20;;
60503;Laerm;51448;51.660;5.824;2023-05-07T12:02:43;48.74;31.77;77.20;;
60503;Laerm;51448;51.660;5.824;2023-05-07T12:05:11;60.37;30.81;80.68;;
60503;Laerm;51448;51.660;5.824;2023-05-07T12:07:39;45.75;31.64;61.20;;
60503;Laerm;51448;51.660;5.824;2023-05-07T12:10:07;52.67;35.74;71.51;;
60503;Laerm;51448;51.660;5.824;2023-05-07T12:12:45;46.50;31.90;61.04;;
60503;Laerm;51448;51.660;5.824;2023-05-07T12:15:17;45.84;30.85;59.92;;
60503;Laerm;51448;51.660;5.824;2023-05-07T12:17:46;46.43;32.67;68.36;;
60503;Laerm;51448;51.660;5.824;2023-05-07T12:20:14;47.92;32.11;63.46;;
60503;Laerm;51448;51.660;5.824;2023-05-07T12:22:42;46.73;31.28;62.20;;
60503;Laerm;51448;51.660;5.824;2023-05-07T12:25:10;45.45;30.85;68.12;;
60503;Laerm;51448;51.660;5.824;2023-05-07T12:27:40;47.21;30.28;73.11;;
60503;Laerm;51448;51.660;5.824;2023-05-07T12:30:10;45.29;31.68;62.21;;
60503;Laerm;51448;51.660;5.824;2023-05-07T12:32:39;48.71;32.11;64.64;;
60503;Laerm;51448;51.660;5.824;2023-05-07T12:35:07;47.06;31.94;59.24;;
60503;Laerm;51448;51.660;5.824;2023-05-07T12:37:35;45.56;31.94;58.08;;
60503;Laerm;51448;51.660;5.824;2023-05-07T12:40:09;53.98;31.62;74.87;;
60503;Laerm;51448;51.660;5.824;2023-05-07T12:42:40;47.65;31.93;65.18;;
60503;Laerm;51448;51.660;5.824;2023-05-07T12:45:13;51.38;31.13;72.90;;
60503;Laerm;51448;51.660;5.824;2023-05-07T12:47:47;48.97;31.70;61.17;;
60503;Laerm;51448;51.660;5.824;2023-05-07T12:50:15;53.88;32.65;71.10;;
60503;Laerm;51448;51.660;5.824;2023-05-07T12:52:47;47.57;32.03;57.50;;
60503;Laerm;51448;51.660;5.824;2023-05-07T12:55:16;50.67;31.20;76.33;;
60503;Laerm;51448;51.660;5.824;2023-05-07T12:57:48;69.80;33.18;99.64;;
60503;Laerm;51448;51.660;5.824;2023-05-07T13:00:16;56.43;32.67;79.69;;
60503;Laerm;51448;51.660;5.824;2023-05-07T13:02:45;50.90;32.42;64.22;;
60503;Laerm;51448;51.660;5.824;2023-05-07T13:05:13;52.43;32.21;74.22;;
60503;Laerm;51448;51.660;5.824;2023-05-07T13:07:55;48.64;31.19;63.26;;
60503;Laerm;51448;51.660;5.824;2023-05-07T13:10:24;50.16;32.88;63.13;;
60503;Laerm;51448;51.660;5.824;2023-05-07T13:12:52;48.21;31.50;66.03;;
60503;Laerm;51448;51.660;5.824;2023-05-07T13:15:20;48.65;31.92;64.94;;
60503;Laerm;51448;51.660;5.824;2023-05-07T13:17:49;49.08;32.70;65.15;;
60503;Laerm;51448;51.660;5.824;2023-05-07T13:20:17;53.46;34.17;68.87;;
60503;Laerm;51448;51.660;5.824;2023-05-07T13:22:45;62.41;35.11;82.09;;
60503;Laerm;51448;51.660;5.824;2023-05-07T13:25:12;48.61;33.78;64.78;;
60503;Laerm;51448;51.660;5.824;2023-05-07T13:27:40;46.32;34.90;58.22;;
60503;Laerm;51448;51.660;5.824;2023-05-07T13:30:08;52.30;33.82;82.23;;
60503;Laerm;51448;51.660;5.824;2023-05-07T13:32:35;47.55;34.03;69.53;;
60503;Laerm;51448;51.660;5.824;2023-05-07T13:35:04;46.42;34.13;66.84;;
60503;Laerm;51448;51.660;5.824;2023-05-07T13:37:31;49.85;33.90;61.25;;
60503;Laerm;51448;51.660;5.824;2023-05-07T13:39:59;49.11;31.83;65.77;;
60503;Laerm;51448;51.660;5.824;2023-05-07T13:42:27;49.33;31.60;65.58;;
60503;Laerm;51448;51.660;5.824;2023-05-07T13:44:54;46.33;32.35;60.05;;
60503;Laerm;51448;51.660;5.824;2023-05-07T13:47:22;49.33;33.29;67.10;;
60503;Laerm;51448;51.660;5.824;2023-05-07T13:49:52;56.56;34.18;69.71;;
60503;Laerm;51448;51.660;5.824;2023-05-07T13:52:19;56.88;32.03;71.32;;
60503;Laerm;51448;51.660;5.824;2023-05-07T13:54:47;54.50;34.15;74.28;;
60503;Laerm;51448;51.660;5.824;2023-05-07T13:57:15;47.68;37.04;68.07;;
60503;Laerm;51448;51.660;5.824;2023-05-07T13:59:42;48.90;37.39;63.40;;
60503;Laerm;51448;51.660;5.824;2023-05-07T14:02:10;45.22;37.40;59.02;;
60503;Laerm;51448;51.660;5.824;2023-05-07T14:04:38;46.66;36.60;64.14;;
60503;Laerm;51448;51.660;5.824;2023-05-07T14:07:05;47.17;36.19;62.93;;
60503;Laerm;51448;51.660;5.824;2023-05-07T14:09:33;52.45;37.64;69.78;;
60503;Laerm;51448;51.660;5.824;2023-05-07T14:12:00;50.29;38.28;68.23;;
60503;Laerm;51448;51.660;5.824;2023-05-07T14:14:28;52.87;40.64;62.34;;
60503;Laerm;51448;51.660;5.824;2023-05-07T14:16:57;56.78;49.49;65.88;;
60503;Laerm;51448;51.660;5.824;2023-05-07T14:19:25;54.70;47.35;76.86;;
60503;Laerm;51448;51.660;5.824;2023-05-07T14:21:52;67.06;46.77;92.78;;
60503;Laerm;51448;51.660;5.824;2023-05-07T14:24:20;55.16;46.91;73.78;;